Time;durP1;ratioP1;P1;durP2;ratioP2;P2;SDS_P1;SDS_P2;PMS_P1;PMS_P2;Temp;Humidity;BMP_temperature;BMP_pressure;BME280_temperature;BME280_humidity;BME280_pressure;Samples;Min_cycle;Max_cycle;Signal;HPM_P1;HPM_P2
2021/09/12 00:00:13;;;;;;;36.60;26.37;;;18.80;99.90;;;;;;6065455;23;20448;-67
2021/09/12 00:02:43;;;;;;;37.17;27.87;;;18.80;99.90;;;;;;6066965;23;20442;-65
2021/09/12 00:05:11;;;;;;;43.97;28.20;;;18.80;99.90;;;;;;6067495;23;20392;-65
2021/09/12 00:07:38;;;;;;;41.13;28.43;;;18.70;99.90;;;;;;6067043;23;20398;-66
2021/09/12 00:10:07;;;;;;;45.23;29.90;;;18.70;99.90;;;;;;6066579;23;20404;-67
2021/09/12 00:12:34;;;;;;;43.63;31.40;;;18.70;99.90;;;;;;6068157;23;20431;-67
2021/09/12 00:15:01;;;;;;;42.20;30.10;;;18.60;99.90;;;;;;6066752;23;20891;-67
2021/09/12 00:17:29;;;;;;;42.40;30.17;;;18.70;99.90;;;;;;6066129;23;20402;-67
2021/09/12 00:19:57;;;;;;;42.53;30.20;;;18.60;99.90;;;;;;6066509;23;20399;-66
2021/09/12 00:22:24;;;;;;;40.90;27.40;;;18.60;99.90;;;;;;6065878;23;20435;-66
2021/09/12 00:24:52;;;;;;;49.33;30.90;;;18.60;99.90;;;;;;6066518;23;20402;-66
2021/09/12 00:27:19;;;;;;;40.63;28.27;;;18.60;99.90;;;;;;6066877;23;20454;-67
2021/09/12 00:29:46;;;;;;;42.53;31.07;;;18.70;99.90;;;;;;6065749;23;20410;-67
2021/09/12 00:32:13;;;;;;;42.90;28.30;;;18.70;99.90;;;;;;6066458;23;21291;-67
2021/09/12 00:34:41;;;;;;;40.27;32.13;;;18.70;99.90;;;;;;6066399;23;20648;-67
2021/09/12 00:37:09;;;;;;;42.90;30.30;;;18.70;99.90;;;;;;6066565;23;20406;-67
2021/09/12 00:39:36;;;;;;;41.20;31.30;;;18.70;99.90;;;;;;6065480;23;20414;-67
2021/09/12 00:42:04;;;;;;;37.60;28.43;;;18.70;99.90;;;;;;6066313;23;20953;-67
2021/09/12 00:44:31;;;;;;;46.63;33.13;;;18.70;99.90;;;;;;6066228;23;20415;-68
2021/09/12 00:47:08;;;;;;;51.67;30.33;;;18.70;99.90;;;;;;6067671;23;20472;-68
2021/09/12 00:49:35;;;;;;;42.37;29.73;;;18.70;99.90;;;;;;6066988;23;20442;-67
2021/09/12 00:52:03;;;;;;;44.17;31.20;;;18.70;99.90;;;;;;6066027;23;20427;-66
2021/09/12 00:54:32;;;;;;;46.07;32.00;;;18.60;99.90;;;;;;6066717;23;20441;-66
2021/09/12 00:57:00;;;;;;;53.20;31.50;;;18.60;99.90;;;;;;6066287;23;20400;-66
2021/09/12 00:59:28;;;;;;;51.37;31.57;;;18.50;99.90;;;;;;6066100;23;20402;-67
2021/09/12 01:01:57;;;;;;;45.97;32.80;;;18.50;99.90;;;;;;6065775;23;20440;-67
2021/09/12 01:04:24;;;;;;;41.93;29.80;;;18.50;99.90;;;;;;6066442;23;20413;-67
2021/09/12 01:06:52;;;;;;;53.10;33.77;;;18.60;99.90;;;;;;6066604;23;20395;-67
2021/09/12 01:09:19;;;;;;;51.10;32.33;;;18.50;99.90;;;;;;6065977;23;20410;-68
2021/09/12 01:11:50;;;;;;;48.73;33.60;;;18.50;99.90;;;;;;6066777;23;20446;-66
2021/09/12 01:14:23;;;;;;;58.03;33.97;;;18.50;99.90;;;;;;6065679;23;20396;-66
2021/09/12 01:16:50;;;;;;;58.33;34.10;;;18.40;99.90;;;;;;6040891;23;20411;-66
2021/09/12 01:19:18;;;;;;;51.63;33.90;;;18.40;99.90;;;;;;6065634;23;20415;-66
2021/09/12 01:21:45;;;;;;;45.60;32.50;;;18.40;99.90;;;;;;6066192;23;20452;-66
2021/09/12 01:24:39;;;;;;;50.57;33.50;;;18.40;99.90;;;;;;6065397;23;20894;-66
2021/09/12 01:27:06;;;;;;;53.03;36.23;;;18.40;99.90;;;;;;6066245;23;20478;-67
2021/09/12 01:29:33;;;;;;;51.30;34.17;;;18.40;99.90;;;;;;6065530;23;20470;-67
2021/09/12 01:32:02;;;;;;;50.93;31.67;;;18.40;99.90;;;;;;6066180;23;20457;-66
2021/09/12 01:34:29;;;;;;;49.90;33.53;;;18.40;99.90;;;;;;6066643;23;20501;-66
2021/09/12 01:36:56;;;;;;;51.90;34.37;;;18.40;99.90;;;;;;6066910;23;20714;-66
2021/09/12 01:39:24;;;;;;;55.70;35.47;;;18.40;99.90;;;;;;6066362;23;20717;-66
2021/09/12 01:41:52;;;;;;;49.23;30.30;;;18.40;99.90;;;;;;6066684;23;20736;-66
2021/09/12 01:44:24;;;;;;;53.73;35.30;;;18.40;99.90;;;;;;6066813;23;20407;-66
2021/09/12 01:46:51;;;;;;;50.83;34.53;;;18.40;99.90;;;;;;6065444;23;20399;-65
2021/09/12 01:49:19;;;;;;;47.63;32.80;;;18.40;99.90;;;;;;6065543;23;20403;-65
2021/09/12 01:51:46;;;;;;;51.67;31.67;;;18.40;99.90;;;;;;6065994;23;20542;-66
2021/09/12 01:54:13;;;;;;;54.87;34.47;;;18.40;99.90;;;;;;6067027;23;20408;-67
2021/09/12 01:56:40;;;;;;;48.20;33.77;;;18.40;99.90;;;;;;6066665;23;20438;-66
2021/09/12 01:59:09;;;;;;;52.43;35.10;;;18.40;99.90;;;;;;6064594;23;20399;-66
2021/09/12 02:01:36;;;;;;;51.33;31.23;;;18.40;99.90;;;;;;6066229;23;20834;-66
2021/09/12 02:04:05;;;;;;;49.83;31.07;;;18.40;99.90;;;;;;6066498;23;20429;-66
2021/09/12 02:06:32;;;;;;;55.40;36.47;;;18.40;99.90;;;;;;6066213;23;20902;-66
2021/09/12 02:08:59;;;;;;;54.30;35.93;;;18.40;99.90;;;;;;6065171;23;20398;-67
2021/09/12 02:11:26;;;;;;;55.97;35.87;;;18.40;99.90;;;;;;6065834;23;20777;-66
2021/09/12 02:13:54;;;;;;;48.93;33.33;;;18.40;99.90;;;;;;6065983;23;20391;-66
2021/09/12 02:16:23;;;;;;;54.60;32.70;;;18.40;99.90;;;;;;6066727;23;20431;-67
2021/09/12 02:18:50;;;;;;;51.80;32.90;;;18.40;99.90;;;;;;6066506;23;20439;-67
2021/09/12 02:21:17;;;;;;;54.77;35.37;;;18.40;99.90;;;;;;6064874;23;20441;-67
2021/09/12 02:23:45;;;;;;;55.70;34.23;;;18.30;99.90;;;;;;6066291;23;20399;-66
2021/09/12 02:26:12;;;;;;;49.27;34.13;;;18.30;99.90;;;;;;6065560;23;20391;-67
2021/09/12 02:28:42;;;;;;;51.07;33.03;;;18.20;99.90;;;;;;6066307;23;20399;-66
2021/09/12 02:31:10;;;;;;;50.80;33.00;;;18.20;99.90;;;;;;6064606;23;20430;-66
2021/09/12 02:33:40;;;;;;;64.87;38.80;;;18.20;99.90;;;;;;6066901;23;20395;-67
2021/09/12 02:36:08;;;;;;;50.07;34.03;;;18.20;99.90;;;;;;6066336;23;20549;-67
2021/09/12 02:38:35;;;;;;;62.43;42.70;;;18.20;99.90;;;;;;6066304;23;20413;-65
2021/09/12 02:41:02;;;;;;;55.73;35.37;;;18.20;99.90;;;;;;6065698;23;20397;-67
2021/09/12 02:43:30;;;;;;;46.10;32.50;;;18.30;99.90;;;;;;6066592;23;20403;-66
2021/09/12 02:45:57;;;;;;;55.90;33.50;;;18.20;99.90;;;;;;6066688;23;20395;-68
2021/09/12 02:48:25;;;;;;;62.80;37.67;;;18.20;99.90;;;;;;6065964;23;20411;-67
2021/09/12 02:50:54;;;;;;;41.83;32.40;;;18.20;99.90;;;;;;6065767;23;20406;-66
2021/09/12 02:53:27;;;;;;;56.27;35.03;;;18.20;99.90;;;;;;6066473;23;20395;-66
2021/09/12 02:55:54;;;;;;;49.17;34.20;;;18.10;99.90;;;;;;6066679;23;20448;-66
2021/09/12 02:58:21;;;;;;;50.13;32.10;;;18.10;99.90;;;;;;6065976;23;20395;-67
2021/09/12 03:00:49;;;;;;;63.17;36.87;;;18.00;99.90;;;;;;6065244;23;20868;-67
2021/09/12 03:03:17;;;;;;;69.73;36.10;;;18.00;99.90;;;;;;6065892;23;20396;-67
2021/09/12 03:05:45;;;;;;;60.63;36.90;;;17.90;99.90;;;;;;6065890;23;20399;-66
2021/09/12 03:08:14;;;;;;;61.00;37.10;;;17.80;99.90;;;;;;6066301;23;20383;-66
2021/09/12 03:10:41;;;;;;;63.33;38.50;;;17.80;99.90;;;;;;6066648;23;20427;-67
2021/09/12 03:13:08;;;;;;;61.60;35.20;;;17.70;99.90;;;;;;6068598;23;20442;-66
2021/09/12 03:15:49;;;;;;;56.77;36.43;;;17.80;99.90;;;;;;6068738;23;20445;-66
2021/09/12 03:18:16;;;;;;;59.17;37.07;;;17.80;99.90;;;;;;6068797;23;20399;-66
2021/09/12 03:20:44;;;;;;;68.53;40.30;;;17.70;99.90;;;;;;6067625;23;20397;-66
2021/09/12 03:23:13;;;;;;;56.77;36.57;;;17.70;99.90;;;;;;6067628;23;20435;-66
2021/09/12 03:25:40;;;;;;;66.93;40.87;;;17.70;99.90;;;;;;6068466;23;20394;-66
2021/09/12 03:28:07;;;;;;;52.73;35.03;;;17.70;99.90;;;;;;6068074;23;20494;-66
2021/09/12 03:30:34;;;;;;;59.20;39.50;;;17.70;99.90;;;;;;6067809;23;20427;-66
2021/09/12 03:33:02;;;;;;;56.83;37.23;;;17.70;99.90;;;;;;6067518;23;20441;-67
2021/09/12 03:35:29;;;;;;;63.57;42.20;;;17.70;99.90;;;;;;6069714;23;20778;-67
2021/09/12 03:37:56;;;;;;;58.67;36.47;;;17.70;99.90;;;;;;6070004;23;20413;-67
2021/09/12 03:40:25;;;;;;;65.50;40.93;;;17.70;99.90;;;;;;6067381;23;20400;-66
2021/09/12 03:42:52;;;;;;;64.03;38.43;;;17.70;99.90;;;;;;6068826;23;20940;-66
2021/09/12 03:45:20;;;;;;;54.37;35.83;;;17.70;99.90;;;;;;6068032;23;20401;-66
2021/09/12 03:47:47;;;;;;;56.27;36.67;;;17.70;99.90;;;;;;6068381;23;20395;-67
2021/09/12 03:50:15;;;;;;;57.23;37.43;;;17.70;99.90;;;;;;6067252;23;20778;-67
2021/09/12 03:52:42;;;;;;;61.30;38.77;;;17.80;99.90;;;;;;6068122;23;20435;-67
2021/09/12 03:55:10;;;;;;;63.37;38.57;;;17.80;99.90;;;;;;6068348;23;20855;-66
2021/09/12 03:57:38;;;;;;;59.27;38.00;;;17.80;99.90;;;;;;6068643;23;20705;-66
2021/09/12 04:00:08;;;;;;;62.57;37.00;;;17.80;99.90;;;;;;6068079;23;20447;-66
2021/09/12 04:02:35;;;;;;;60.83;38.63;;;17.80;99.90;;;;;;6068558;23;20436;-67
2021/09/12 04:05:02;;;;;;;55.83;34.97;;;17.80;99.90;;;;;;6068604;23;20396;-66
2021/09/12 04:07:30;;;;;;;60.27;36.90;;;17.80;99.90;;;;;;6068477;23;20708;-67
2021/09/12 04:09:59;;;;;;;64.67;39.67;;;17.80;99.90;;;;;;6067374;23;20401;-67
2021/09/12 04:12:26;;;;;;;71.30;38.80;;;17.80;99.90;;;;;;6067875;23;20442;-68
2021/09/12 04:14:55;;;;;;;63.03;39.47;;;17.80;99.90;;;;;;6068186;23;20435;-67
2021/09/12 04:17:22;;;;;;;59.27;39.20;;;17.80;99.90;;;;;;6068169;23;20435;-66
2021/09/12 04:19:49;;;;;;;55.63;38.87;;;17.80;99.90;;;;;;6067502;23;20789;-67
2021/09/12 04:22:16;;;;;;;62.77;39.57;;;17.80;99.90;;;;;;6066863;23;20438;-66
2021/09/12 04:24:44;;;;;;;59.33;38.20;;;17.80;99.90;;;;;;6068268;23;20425;-67
2021/09/12 04:27:11;;;;;;;55.70;34.33;;;17.80;99.90;;;;;;6067840;23;20398;-67
2021/09/12 04:29:39;;;;;;;75.43;41.57;;;17.70;99.90;;;;;;6067025;23;20399;-66
2021/09/12 04:32:09;;;;;;;64.97;39.00;;;17.70;99.90;;;;;;6067540;23;20472;-66
2021/09/12 04:34:36;;;;;;;56.00;36.20;;;17.70;99.90;;;;;;6067768;23;20460;-66
2021/09/12 04:37:04;;;;;;;69.97;40.90;;;17.70;99.90;;;;;;6067527;23;20463;-66
2021/09/12 04:39:31;;;;;;;67.33;37.93;;;17.70;99.90;;;;;;6066809;23;20410;-66
2021/09/12 04:41:58;;;;;;;66.03;39.47;;;17.70;99.90;;;;;;6067612;23;20520;-66
2021/09/12 04:44:25;;;;;;;69.43;41.50;;;17.70;99.90;;;;;;6067742;23;20402;-67
2021/09/12 04:46:52;;;;;;;69.13;43.20;;;17.70;99.90;;;;;;6067164;23;20879;-67
2021/09/12 04:49:21;;;;;;;71.23;40.60;;;17.70;99.90;;;;;;6066937;23;20410;-67
2021/09/12 04:51:48;;;;;;;73.60;39.90;;;17.60;99.90;;;;;;6067274;23;20439;-66
2021/09/12 04:54:15;;;;;;;69.30;39.37;;;17.60;99.90;;;;;;6067509;23;20872;-66
2021/09/12 04:56:48;;;;;;;68.80;40.17;;;17.70;99.90;;;;;;6068037;23;20440;-67
2021/09/12 04:59:16;;;;;;;61.93;40.97;;;17.70;99.90;;;;;;6067792;23;20398;-67
2021/09/12 05:01:43;;;;;;;77.13;42.73;;;17.70;99.90;;;;;;6066889;23;20433;-66
2021/09/12 05:04:10;;;;;;;65.17;40.63;;;17.70;99.90;;;;;;6067948;23;20410;-66
2021/09/12 05:06:39;;;;;;;85.30;42.30;;;17.70;99.90;;;;;;6067318;23;20415;-67
2021/09/12 05:09:06;;;;;;;71.57;39.73;;;17.80;99.90;;;;;;6067625;23;20413;-71
2021/09/12 05:11:33;;;;;;;77.23;45.57;;;17.80;99.90;;;;;;6067160;23;20434;-66
2021/09/12 05:14:00;;;;;;;62.47;39.70;;;17.70;99.90;;;;;;6067613;23;20399;-67
2021/09/12 05:16:27;;;;;;;69.90;39.53;;;17.80;99.90;;;;;;6068932;23;20435;-68
2021/09/12 05:18:55;;;;;;;66.17;39.93;;;17.80;99.90;;;;;;6069367;23;20409;-67
2021/09/12 05:21:29;;;;;;;63.20;38.63;;;17.80;99.90;;;;;;6066234;23;20431;-67
2021/09/12 05:23:57;;;;;;;64.10;36.97;;;17.90;99.90;;;;;;6067622;23;20395;-66
2021/09/12 05:26:24;;;;;;;67.63;39.60;;;17.90;99.90;;;;;;6068534;23;20396;-66
2021/09/12 05:28:51;;;;;;;62.67;36.30;;;17.90;99.90;;;;;;6068063;23;20733;-66
2021/09/12 05:31:19;;;;;;;57.10;33.70;;;18.00;99.90;;;;;;6066038;23;20446;-66
2021/09/12 05:33:47;;;;;;;61.50;38.40;;;18.00;99.90;;;;;;6067773;23;20398;-67
2021/09/12 05:36:14;;;;;;;63.43;40.33;;;18.00;99.90;;;;;;6066843;23;20530;-67
2021/09/12 05:38:42;;;;;;;62.93;37.23;;;18.10;99.90;;;;;;6067614;23;20768;-67
2021/09/12 05:41:10;;;;;;;60.43;37.30;;;18.10;99.90;;;;;;6066686;23;20398;-66
2021/09/12 05:43:37;;;;;;;60.23;36.10;;;18.10;99.90;;;;;;6066965;23;20395;-67
2021/09/12 05:46:04;;;;;;;58.03;35.43;;;18.20;99.90;;;;;;6067339;23;20403;-66
2021/09/12 05:48:32;;;;;;;58.27;36.13;;;18.20;99.90;;;;;;6066413;23;20400;-66
2021/09/12 05:50:59;;;;;;;55.97;34.90;;;18.30;99.90;;;;;;6065851;23;20407;-66
2021/09/12 05:53:27;;;;;;;58.13;35.37;;;18.20;99.90;;;;;;6066621;23;20398;-67
2021/09/12 05:55:54;;;;;;;61.03;38.07;;;18.30;99.90;;;;;;6067331;23;20443;-66
2021/09/12 05:58:23;;;;;;;53.17;35.37;;;18.20;99.90;;;;;;6067299;23;20402;-67
2021/09/12 06:00:50;;;;;;;59.53;36.87;;;18.30;99.90;;;;;;6066491;23;20402;-66
2021/09/12 06:03:17;;;;;;;53.17;35.30;;;18.30;99.90;;;;;;6067194;23;20395;-66
2021/09/12 06:05:44;;;;;;;53.13;34.27;;;18.30;99.90;;;;;;6066898;23;20402;-66
2021/09/12 06:08:11;;;;;;;50.73;36.13;;;18.30;99.90;;;;;;6067356;23;20407;-65
2021/09/12 06:10:39;;;;;;;53.07;34.73;;;18.40;99.90;;;;;;6066232;23;20402;-67
2021/09/12 06:13:06;;;;;;;57.50;37.23;;;18.40;99.90;;;;;;6066797;23;20431;-66
2021/09/12 06:15:35;;;;;;;67.50;39.10;;;18.40;99.90;;;;;;6067245;23;20405;-67
2021/09/12 06:18:02;;;;;;;53.20;34.17;;;18.40;99.90;;;;;;6066969;23;20437;-67
2021/09/12 06:20:30;;;;;;;48.47;34.60;;;18.40;99.90;;;;;;6066227;23;20388;-67
2021/09/12 06:22:57;;;;;;;56.30;36.27;;;18.50;99.90;;;;;;6066142;23;20445;-66
2021/09/12 06:25:25;;;;;;;52.10;32.87;;;18.50;99.90;;;;;;6066873;23;20403;-65
2021/09/12 06:27:52;;;;;;;43.73;32.40;;;18.60;99.90;;;;;;6067261;23;20395;-66
2021/09/12 06:30:19;;;;;;;58.40;33.77;;;18.70;99.90;;;;;;6067450;23;20395;-68
2021/09/12 06:32:51;;;;;;;46.87;31.53;;;18.80;99.90;;;;;;6070896;23;20498;-67
2021/09/12 06:35:18;;;;;;;54.40;34.10;;;18.80;99.90;;;;;;6067113;23;20418;-66
2021/09/12 06:37:45;;;;;;;48.63;31.63;;;18.80;99.90;;;;;;6067012;23;20445;-66
2021/09/12 06:40:14;;;;;;;44.80;29.63;;;18.90;99.90;;;;;;6065704;23;20439;-66
2021/09/12 06:42:41;;;;;;;41.30;28.87;;;18.90;99.90;;;;;;6067437;23;20434;-66
2021/09/12 06:45:09;;;;;;;42.23;29.80;;;19.00;99.90;;;;;;6067440;23;20422;-67
2021/09/12 06:47:37;;;;;;;47.87;31.30;;;19.00;99.90;;;;;;6069098;23;20391;-67
2021/09/12 06:50:07;;;;;;;47.83;29.03;;;19.00;99.90;;;;;;6067772;23;20706;-67
2021/09/12 06:52:36;;;;;;;43.93;30.27;;;19.00;99.90;;;;;;6068185;23;20435;-66
2021/09/12 06:55:03;;;;;;;39.90;28.47;;;19.00;99.90;;;;;;6068797;23;20400;-67
2021/09/12 06:57:30;;;;;;;41.80;30.00;;;19.00;99.90;;;;;;6068551;23;20431;-68
2021/09/12 06:59:58;;;;;;;42.47;29.77;;;19.00;99.90;;;;;;6067931;23;20403;-66
2021/09/12 07:02:26;;;;;;;44.00;28.43;;;19.00;99.90;;;;;;6068412;23;20449;-67
2021/09/12 07:04:53;;;;;;;35.63;27.43;;;19.00;99.90;;;;;;6068186;23;20402;-67
2021/09/12 07:07:22;;;;;;;43.40;29.43;;;19.00;99.90;;;;;;6068710;23;20388;-67
2021/09/12 07:09:49;;;;;;;39.13;27.43;;;19.00;99.90;;;;;;6068042;23;20395;-67
2021/09/12 07:12:16;;;;;;;38.53;26.67;;;19.00;99.90;;;;;;6068090;23;20435;-65
2021/09/12 07:14:43;;;;;;;41.73;25.03;;;19.10;99.90;;;;;;6068680;23;20399;-66
2021/09/12 07:17:11;;;;;;;32.47;26.40;;;19.20;99.90;;;;;;6068483;23;20431;-65
2021/09/12 07:19:38;;;;;;;37.83;26.33;;;19.30;99.90;;;;;;6067690;23;20401;-65
2021/09/12 07:22:05;;;;;;;38.90;25.13;;;19.20;99.90;;;;;;6068160;23;20435;-65
2021/09/12 07:24:33;;;;;;;38.03;26.50;;;19.30;99.90;;;;;;6068262;23;20406;-66
2021/09/12 07:27:01;;;;;;;30.17;24.57;;;19.40;99.90;;;;;;6068064;23;20399;-66
2021/09/12 07:29:28;;;;;;;29.03;23.33;;;19.60;99.90;;;;;;6067658;23;20897;-66
2021/09/12 07:31:56;;;;;;;37.63;24.77;;;19.60;99.90;;;;;;6067455;23;20938;-66
2021/09/12 07:34:23;;;;;;;32.63;24.40;;;19.60;99.90;;;;;;6069650;23;20758;-66
2021/09/12 07:36:51;;;;;;;28.63;22.90;;;19.60;99.90;;;;;;6068778;23;20463;-66
2021/09/12 07:39:18;;;;;;;28.53;22.27;;;19.70;99.90;;;;;;6067256;23;20399;-66
2021/09/12 07:41:46;;;;;;;35.53;25.27;;;19.70;99.90;;;;;;6066316;23;20442;-66
2021/09/12 07:44:13;;;;;;;30.33;23.47;;;19.70;99.90;;;;;;6068260;23;20399;-65
2021/09/12 07:46:40;;;;;;;30.50;22.00;;;19.60;99.90;;;;;;6068148;23;20391;-66
2021/09/12 07:49:08;;;;;;;29.07;23.07;;;19.80;99.90;;;;;;6067650;23;20859;-67
2021/09/12 07:51:35;;;;;;;33.60;25.70;;;19.90;99.90;;;;;;6067208;23;20445;-67
2021/09/12 07:54:02;;;;;;;26.20;22.07;;;19.90;99.90;;;;;;6067978;23;20467;-66
2021/09/12 07:56:29;;;;;;;35.30;24.33;;;19.80;99.90;;;;;;6066842;23;20396;-67
2021/09/12 07:58:57;;;;;;;34.07;24.10;;;19.70;99.90;;;;;;6068229;23;20399;-66
2021/09/12 08:01:25;;;;;;;28.43;21.57;;;19.60;99.90;;;;;;6067560;23;20750;-67
2021/09/12 08:03:52;;;;;;;32.53;24.87;;;19.70;99.90;;;;;;6067171;23;20486;-66
2021/09/12 08:06:19;;;;;;;35.10;22.60;;;19.60;99.90;;;;;;6068628;23;20403;-66
2021/09/12 08:08:46;;;;;;;27.80;20.60;;;19.70;99.90;;;;;;6067920;23;20410;-66
2021/09/12 08:11:13;;;;;;;31.03;23.40;;;19.60;99.90;;;;;;6066721;23;20435;-66
2021/09/12 08:13:41;;;;;;;27.90;20.33;;;19.80;99.90;;;;;;6067311;23;20867;-67
2021/09/12 08:16:09;;;;;;;28.33;21.23;;;20.00;99.90;;;;;;6066971;23;20918;-65
2021/09/12 08:18:38;;;;;;;25.23;18.60;;;20.50;99.90;;;;;;6067464;23;20435;-66
2021/09/12 08:21:05;;;;;;;30.17;18.80;;;20.60;99.90;;;;;;6066256;23;20400;-66
2021/09/12 08:23:32;;;;;;;24.57;19.90;;;20.90;99.90;;;;;;6067559;23;20397;-67
2021/09/12 08:25:59;;;;;;;23.20;16.07;;;21.20;99.90;;;;;;6067948;23;20722;-66
2021/09/12 08:28:26;;;;;;;27.10;17.83;;;21.50;99.90;;;;;;6067947;23;20406;-66
2021/09/12 08:30:53;;;;;;;20.87;16.73;;;21.60;99.90;;;;;;6065944;23;20406;-66
2021/09/12 08:33:22;;;;;;;25.80;17.03;;;21.60;99.90;;;;;;6067200;23;20426;-66
2021/09/12 08:35:49;;;;;;;21.47;15.83;;;21.60;99.90;;;;;;6068085;23;20396;-66
2021/09/12 08:38:16;;;;;;;19.07;16.07;;;21.50;99.90;;;;;;6067742;23;20442;-70
2021/09/12 08:40:44;;;;;;;18.67;14.80;;;21.60;99.90;;;;;;6066152;23;20399;-70
2021/09/12 08:43:12;;;;;;;26.70;19.57;;;21.60;99.90;;;;;;6067025;23;20438;-70
2021/09/12 08:45:40;;;;;;;24.00;20.07;;;21.60;99.90;;;;;;6067403;23;20851;-69
2021/09/12 08:48:07;;;;;;;22.23;19.67;;;21.80;99.90;;;;;;6067831;23;20852;-67
2021/09/12 08:50:35;;;;;;;28.70;19.43;;;21.90;99.90;;;;;;6066360;23;20399;-65
2021/09/12 08:53:03;;;;;;;24.57;18.00;;;22.00;99.90;;;;;;6067684;23;20930;-66
2021/09/12 08:55:30;;;;;;;28.70;21.13;;;21.90;99.90;;;;;;6067384;23;20792;-66
2021/09/12 08:57:59;;;;;;;26.47;20.80;;;21.50;99.90;;;;;;6067051;23;20441;-66
2021/09/12 09:00:27;;;;;;;25.83;20.63;;;21.30;99.90;;;;;;6066562;23;20987;-67
2021/09/12 09:02:59;;;;;;;27.17;19.90;;;21.20;99.90;;;;;;6067223;23;20970;-66
2021/09/12 09:05:32;;;;;;;27.73;19.93;;;21.00;99.90;;;;;;6067380;23;20727;-67
2021/09/12 09:08:12;;;;;;;26.57;20.23;;;20.90;99.90;;;;;;6068037;23;20461;-67
2021/09/12 09:10:41;;;;;;;25.77;20.77;;;20.80;99.90;;;;;;6066069;23;20398;-70
2021/09/12 09:13:31;;;;;;;21.03;18.53;;;20.90;99.90;;;;;;6060252;23;20431;-71
2021/09/12 09:15:58;;;;;;;20.40;17.83;;;21.10;99.90;;;;;;6064479;23;20504;-70
2021/09/12 09:18:38;;;;;;;21.17;18.10;;;21.30;99.90;;;;;;6066091;23;20961;-70
2021/09/12 09:21:23;;;;;;;17.33;15.10;;;21.60;99.90;;;;;;6066201;23;20401;-70
2021/09/12 09:24:13;;;;;;;22.63;16.07;;;21.90;99.90;;;;;;6065936;23;20446;-70
2021/09/12 09:26:42;;;;;;;19.77;13.17;;;22.60;99.90;;;;;;6043795;23;20391;-69
2021/09/12 09:29:10;;;;;;;18.80;14.37;;;22.80;99.90;;;;;;6064765;23;20418;-68
2021/09/12 09:31:38;;;;;;;17.53;13.87;;;22.60;99.90;;;;;;6064821;23;20454;-73
2021/09/12 09:34:15;;;;;;;15.53;13.30;;;22.60;99.90;;;;;;6065867;23;20396;-75
2021/09/12 09:36:42;;;;;;;16.73;14.90;;;22.60;99.90;;;;;;6067724;23;20462;-72
2021/09/12 09:39:11;;;;;;;16.83;13.10;;;22.60;99.90;;;;;;6065970;23;20391;-72
2021/09/12 09:41:40;;;;;;;14.00;12.60;;;22.60;99.90;;;;;;6065297;23;20431;-70
2021/09/12 09:44:13;;;;;;;18.83;12.10;;;22.60;99.90;;;;;;6066606;23;20406;-69
2021/09/12 09:46:42;;;;;;;18.50;13.47;;;22.90;99.90;;;;;;6066419;23;20398;-68
2021/09/12 09:49:21;;;;;;;16.47;12.67;;;22.80;99.90;;;;;;6066479;23;20482;-69
2021/09/12 09:51:51;;;;;;;18.60;13.70;;;22.80;99.90;;;;;;6065695;23;20442;-72
2021/09/12 09:54:20;;;;;;;23.37;13.80;;;22.70;99.90;;;;;;6063568;23;20447;-69
2021/09/12 09:56:49;;;;;;;14.37;11.30;;;22.80;99.90;;;;;;6064923;23;20391;-69
2021/09/12 09:59:18;;;;;;;12.17;10.97;;;22.90;99.90;;;;;;6066329;23;20392;-69
2021/09/12 10:01:49;;;;;;;22.23;13.13;;;23.20;99.90;;;;;;6063831;23;20438;-68
2021/09/12 10:04:18;;;;;;;31.67;14.07;;;23.10;99.90;;;;;;6066338;23;20435;-74
2021/09/12 10:06:47;;;;;;;18.60;12.60;;;23.20;99.90;;;;;;6065418;23;20697;-68
2021/09/12 10:09:15;;;;;;;16.80;11.60;;;23.40;99.90;;;;;;6065886;23;20396;-75
2021/09/12 10:11:48;;;;;;;16.97;12.70;;;23.60;99.90;;;;;;6065616;23;20416;-74
2021/09/12 10:14:19;;;;;;;12.70;9.70;;;23.60;99.90;;;;;;6066701;23;20400;-73
2021/09/12 10:16:49;;;;;;;14.27;11.67;;;23.50;99.90;;;;;;6065667;23;20438;-70
2021/09/12 10:19:35;;;;;;;18.30;12.53;;;23.50;99.90;;;;;;6065636;23;20435;-69
2021/09/12 10:22:08;;;;;;;12.63;11.27;;;23.50;99.90;;;;;;6066927;23;20446;-71
2021/09/12 10:24:38;;;;;;;16.60;11.60;;;23.70;99.90;;;;;;6042473;23;20719;-69
2021/09/12 10:27:34;;;;;;;14.60;10.77;;;23.70;99.90;;;;;;6069984;23;21253;-69
2021/09/12 10:30:21;;;;;;;10.97;8.87;;;23.50;99.90;;;;;;6068861;23;20467;-72
2021/09/12 10:32:50;;;;;;;15.07;10.40;;;23.50;99.90;;;;;;6068747;23;20484;-74
2021/09/12 10:35:20;;;;;;;11.50;8.70;;;23.60;99.90;;;;;;6067861;23;20403;-74
2021/09/12 10:38:01;;;;;;;13.87;9.50;;;23.70;99.90;;;;;;6067632;23;20518;-70
2021/09/12 10:41:05;;;;;;;10.00;8.60;;;23.60;99.90;;;;;;6067440;23;20403;-72
2021/09/12 10:43:54;;;;;;;13.20;8.90;;;23.40;99.90;;;;;;6064268;23;20419;-84
2021/09/12 10:46:24;;;;;;;10.30;8.70;;;23.40;99.90;;;;;;6069096;23;20727;-74
2021/09/12 10:49:09;;;;;;;11.40;10.23;;;23.60;99.90;;;;;;6068908;23;20787;-70
2021/09/12 10:51:41;;;;;;;12.50;8.87;;;23.80;99.90;;;;;;6067562;23;20423;-68
2021/09/12 10:54:08;;;;;;;14.87;10.20;;;23.70;99.90;;;;;;6068646;23;20727;-71
2021/09/12 10:56:37;;;;;;;14.57;10.00;;;23.80;99.90;;;;;;6068497;23;20399;-70
2021/09/12 10:59:10;;;;;;;12.90;9.97;;;23.80;99.90;;;;;;6068225;23;20435;-70
2021/09/12 11:01:40;;;;;;;13.83;9.00;;;23.70;99.90;;;;;;6066223;23;20502;-69
2021/09/12 11:04:08;;;;;;;16.10;8.70;;;23.50;99.90;;;;;;6068157;23;20969;-68
2021/09/12 11:06:38;;;;;;;11.00;9.70;;;23.50;99.90;;;;;;6066896;23;20395;-69
2021/09/12 11:09:16;;;;;;;9.23;8.33;;;23.50;99.90;;;;;;6068542;23;20391;-68
2021/09/12 11:11:43;;;;;;;13.80;9.83;;;23.50;99.90;;;;;;6066898;23;20442;-69
2021/09/12 11:14:15;;;;;;;11.33;8.30;;;23.70;99.90;;;;;;6067930;23;20474;-69
2021/09/12 11:16:43;;;;;;;12.00;7.10;;;24.00;99.90;;;;;;6068281;23;20400;-69
2021/09/12 11:19:10;;;;;;;9.60;7.40;;;24.20;99.90;;;;;;6066464;23;20469;-68
2021/09/12 11:21:39;;;;;;;7.80;7.00;;;23.80;99.90;;;;;;6065417;23;20435;-68
2021/09/12 11:24:09;;;;;;;12.83;7.83;;;23.90;99.90;;;;;;6066774;23;20399;-69
2021/09/12 11:26:41;;;;;;;11.03;7.07;;;23.60;99.90;;;;;;6066430;23;20732;-69
2021/09/12 11:29:12;;;;;;;14.50;7.37;;;23.60;99.90;;;;;;6066749;23;20740;-71
2021/09/12 11:31:41;;;;;;;11.83;6.80;;;23.60;99.90;;;;;;6063744;23;20446;-68
2021/09/12 11:34:08;;;;;;;19.87;8.07;;;23.60;99.90;;;;;;6066108;23;20395;-68
2021/09/12 11:36:43;;;;;;;12.50;7.63;;;23.50;99.90;;;;;;6066936;23;20927;-69
2021/09/12 11:39:11;;;;;;;13.70;8.30;;;23.70;99.90;;;;;;6068376;23;20449;-68
2021/09/12 11:41:41;;;;;;;9.03;6.30;;;23.70;99.90;;;;;;6067399;23;20453;-69
2021/09/12 11:44:09;;;;;;;8.10;6.50;;;23.60;99.90;;;;;;6068789;23;20465;-68
2021/09/12 11:46:46;;;;;;;8.03;6.20;;;23.80;99.90;;;;;;6067761;23;20391;-69
2021/09/12 11:49:13;;;;;;;9.23;7.23;;;23.80;99.90;;;;;;6067431;23;20391;-69
2021/09/12 11:51:44;;;;;;;9.17;7.30;;;23.80;99.90;;;;;;6066853;23;20910;-68
2021/09/12 11:54:14;;;;;;;9.47;6.37;;;23.80;99.90;;;;;;6068376;23;20723;-68
2021/09/12 11:56:42;;;;;;;10.23;6.87;;;23.90;99.90;;;;;;6067819;23;20898;-69
2021/09/12 11:59:12;;;;;;;8.90;7.67;;;23.80;99.90;;;;;;6067050;23;20441;-69
2021/09/12 12:01:41;;;;;;;7.90;6.90;;;23.60;99.90;;;;;;6066789;23;20443;-68
2021/09/12 12:04:10;;;;;;;11.37;7.70;;;23.70;99.90;;;;;;6067733;23;20423;-69
2021/09/12 12:06:38;;;;;;;11.80;7.40;;;23.90;99.90;;;;;;6067762;23;20417;-69
2021/09/12 12:09:15;;;;;;;11.30;6.53;;;24.00;99.90;;;;;;6066640;23;20398;-68
2021/09/12 12:11:44;;;;;;;12.70;7.10;;;24.10;99.90;;;;;;6067562;23;20965;-68
2021/09/12 12:14:28;;;;;;;9.90;6.70;;;24.00;99.90;;;;;;6069559;23;20577;-69
2021/09/12 12:16:55;;;;;;;8.43;7.60;;;23.90;99.90;;;;;;6067989;23;20396;-69
2021/09/12 12:19:35;;;;;;;10.70;6.60;;;23.80;99.90;;;;;;6067565;23;20510;-69
2021/09/12 12:22:06;;;;;;;7.67;6.90;;;23.80;99.90;;;;;;6067678;23;20498;-69
2021/09/12 12:24:37;;;;;;;10.63;7.07;;;23.80;99.90;;;;;;6067899;23;20399;-69
2021/09/12 12:27:09;;;;;;;8.23;6.90;;;23.80;99.90;;;;;;6067519;23;20400;-69
2021/09/12 12:29:37;;;;;;;14.57;7.90;;;23.90;99.90;;;;;;6067575;23;20401;-68
2021/09/12 12:32:06;;;;;;;11.70;7.40;;;23.70;99.90;;;;;;6066965;23;20475;-69
2021/09/12 12:34:43;;;;;;;7.63;6.93;;;23.60;99.90;;;;;;6067973;23;20478;-68
2021/09/12 12:37:12;;;;;;;10.40;7.40;;;23.60;99.90;;;;;;6067678;23;20399;-68